sensor_id;sensor_type;location;lat;lon;timestamp;pressure;altitude;pressure_sealevel;temperature;humidity
20622;BME280;10470;42.670;23.354;2023-01-29T00:00:33;94888.53;;;0.35;100.00
20622;BME280;10470;42.670;23.354;2023-01-29T00:03:18;94891.66;;;0.52;100.00
20622;BME280;10470;42.670;23.354;2023-01-29T00:06:05;94882.81;;;0.44;100.00
20622;BME280;10470;42.670;23.354;2023-01-29T00:08:51;94893.94;;;0.42;100.00
20622;BME280;10470;42.670;23.354;2023-01-29T00:11:37;94901.22;;;0.49;100.00
20622;BME280;10470;42.670;23.354;2023-01-29T00:14:22;94904.69;;;0.50;100.00
20622;BME280;10470;42.670;23.354;2023-01-29T00:17:08;94904.66;;;0.46;100.00
20622;BME280;10470;42.670;23.354;2023-01-29T00:19:54;94906.19;;;0.43;100.00
20622;BME280;10470;42.670;23.354;2023-01-29T00:22:39;94912.34;;;0.48;100.00
20622;BME280;10470;42.670;23.354;2023-01-29T00:25:25;94902.75;;;0.43;100.00
20622;BME280;10470;42.670;23.354;2023-01-29T00:28:11;94908.50;;;0.45;100.00
20622;BME280;10470;42.670;23.354;2023-01-29T00:30:57;94913.06;;;0.37;100.00
20622;BME280;10470;42.670;23.354;2023-01-29T00:33:43;94918.41;;;0.41;100.00
20622;BME280;10470;42.670;23.354;2023-01-29T00:36:28;94914.63;;;0.42;100.00
20622;BME280;10470;42.670;23.354;2023-01-29T00:39:14;94913.41;;;0.29;100.00
20622;BME280;10470;42.670;23.354;2023-01-29T00:41:59;94915.00;;;0.51;100.00
20622;BME280;10470;42.670;23.354;2023-01-29T00:45:03;94911.94;;;0.49;100.00
20622;BME280;10470;42.670;23.354;2023-01-29T00:47:49;94915.06;;;0.69;100.00
20622;BME280;10470;42.670;23.354;2023-01-29T00:50:34;94911.19;;;0.52;100.00
20622;BME280;10470;42.670;23.354;2023-01-29T00:53:20;94906.94;;;0.40;100.00
20622;BME280;10470;42.670;23.354;2023-01-29T00:56:05;94916.94;;;0.51;100.00
20622;BME280;10470;42.670;23.354;2023-01-29T00:58:51;94912.25;;;0.26;100.00
20622;BME280;10470;42.670;23.354;2023-01-29T01:01:37;94907.69;;;0.37;100.00
20622;BME280;10470;42.670;23.354;2023-01-29T01:04:41;94901.56;;;0.30;100.00
20622;BME280;10470;42.670;23.354;2023-01-29T01:07:26;94904.97;;;0.19;100.00
20622;BME280;10470;42.670;23.354;2023-01-29T01:10:20;94901.16;;;0.24;100.00
20622;BME280;10470;42.670;23.354;2023-01-29T01:13:06;94908.84;;;0.36;100.00
20622;BME280;10470;42.670;23.354;2023-01-29T01:15:51;94897.75;;;0.38;100.00
20622;BME280;10470;42.670;23.354;2023-01-29T01:18:37;94908.78;;;0.26;100.00
20622;BME280;10470;42.670;23.354;2023-01-29T01:21:22;94904.22;;;0.26;100.00
20622;BME280;10470;42.670;23.354;2023-01-29T01:24:08;94900.00;;;0.21;100.00
20622;BME280;10470;42.670;23.354;2023-01-29T01:26:53;94895.78;;;0.24;100.00
20622;BME280;10470;42.670;23.354;2023-01-29T01:29:39;94895.75;;;0.17;100.00
20622;BME280;10470;42.670;23.354;2023-01-29T01:32:25;94896.16;;;0.19;100.00
20622;BME280;10470;42.670;23.354;2023-01-29T01:35:11;94893.44;;;0.12;100.00
20622;BME280;10470;42.670;23.354;2023-01-29T01:37:57;94897.69;;;0.20;100.00
20622;BME280;10470;42.670;23.354;2023-01-29T01:40:44;94888.09;;;0.12;100.00
20622;BME280;10470;42.670;23.354;2023-01-29T01:44:01;94894.63;;;0.21;100.00
20622;BME280;10470;42.670;23.354;2023-01-29T01:46:47;94900.00;;;0.21;100.00
20622;BME280;10470;42.670;23.354;2023-01-29T01:49:32;94891.16;;;0.17;100.00
20622;BME280;10470;42.670;23.354;2023-01-29T01:52:18;94900.75;;;0.22;100.00
20622;BME280;10470;42.670;23.354;2023-01-29T01:55:05;94901.53;;;0.19;100.00
20622;BME280;10470;42.670;23.354;2023-01-29T01:57:55;94903.81;;;0.20;100.00
20622;BME280;10470;42.670;23.354;2023-01-29T02:00:43;94914.50;;;0.17;100.00
20622;BME280;10470;42.670;23.354;2023-01-29T02:03:30;94914.91;;;0.19;100.00
20622;BME280;10470;42.670;23.354;2023-01-29T02:06:39;94919.84;;;0.10;100.00
20622;BME280;10470;42.670;23.354;2023-01-29T02:09:49;94912.59;;;0.14;100.00
20622;BME280;10470;42.670;23.354;2023-01-29T02:12:37;94914.88;;;0.12;100.00
20622;BME280;10470;42.670;23.354;2023-01-29T02:15:22;94896.09;;;0.05;100.00
20622;BME280;10470;42.670;23.354;2023-01-29T02:18:04;94908.03;;;0.21;100.00
20622;BME280;10470;42.670;23.354;2023-01-29T02:21:33;94913.44;;;0.32;100.00
20622;BME280;10470;42.670;23.354;2023-01-29T02:27:23;94897.59;;;-0.02;100.00
20622;BME280;10470;42.670;23.354;2023-01-29T02:30:16;94926.31;;;0.02;100.00
20622;BME280;10470;42.670;23.354;2023-01-29T02:33:22;94915.31;;;0.21;100.00
20622;BME280;10470;42.670;23.354;2023-01-29T02:39:33;94923.34;;;0.25;100.00
20622;BME280;10470;42.670;23.354;2023-01-29T02:42:30;94925.94;;;0.10;100.00
20622;BME280;10470;42.670;23.354;2023-01-29T02:45:34;94927.13;;;0.13;100.00
20622;BME280;10470;42.670;23.354;2023-01-29T02:48:24;94925.25;;;0.24;100.00
20622;BME280;10470;42.670;23.354;2023-01-29T02:51:33;94933.63;;;0.12;100.00
20622;BME280;10470;42.670;23.354;2023-01-29T02:54:26;94942.41;;;0.09;100.00
20622;BME280;10470;42.670;23.354;2023-01-29T02:57:22;94927.50;;;0.11;100.00
20622;BME280;10470;42.670;23.354;2023-01-29T03:00:18;94934.78;;;0.11;100.00
20622;BME280;10470;42.670;23.354;2023-01-29T03:06:31;94926.00;;;0.17;100.00
20622;BME280;10470;42.670;23.354;2023-01-29T03:12:19;94925.59;;;0.15;100.00
20622;BME280;10470;42.670;23.354;2023-01-29T03:15:25;94925.22;;;0.17;100.00
20622;BME280;10470;42.670;23.354;2023-01-29T03:18:22;94922.59;;;0.24;100.00
20622;BME280;10470;42.670;23.354;2023-01-29T03:21:30;94929.09;;;0.30;100.00
20622;BME280;10470;42.670;23.354;2023-01-29T03:24:55;94932.56;;;0.31;100.00
20622;BME280;10470;42.670;23.354;2023-01-29T03:28:01;94931.75;;;0.23;100.00
20622;BME280;10470;42.670;23.354;2023-01-29T03:31:09;94934.78;;;0.14;100.00
20622;BME280;10470;42.670;23.354;2023-01-29T03:34:23;94934.84;;;0.29;100.00
20622;BME280;10470;42.670;23.354;2023-01-29T03:37:33;94933.34;;;0.31;100.00
20622;BME280;10470;42.670;23.354;2023-01-29T03:40:20;94936.06;;;0.42;100.00
20622;BME280;10470;42.670;23.354;2023-01-29T03:43:29;94931.81;;;0.37;100.00
20622;BME280;10470;42.670;23.354;2023-01-29T03:49:14;94936.00;;;0.31;100.00
20622;BME280;10470;42.670;23.354;2023-01-29T03:52:20;94936.00;;;0.31;100.00
20622;BME280;10470;42.670;23.354;2023-01-29T03:55:15;94924.53;;;0.34;100.00
20622;BME280;10470;42.670;23.354;2023-01-29T03:58:13;94939.88;;;0.48;100.00
20622;BME280;10470;42.670;23.354;2023-01-29T04:01:03;94934.84;;;0.29;100.00
20622;BME280;10470;42.670;23.354;2023-01-29T04:07:05;94933.25;;;0.17;100.00
20622;BME280;10470;42.670;23.354;2023-01-29T04:10:03;94940.97;;;0.29;100.00
20622;BME280;10470;42.670;23.354;2023-01-29T04:13:03;94935.63;;;0.29;100.00
20622;BME280;10470;42.670;23.354;2023-01-29T04:15:54;94947.09;;;0.26;100.00
20622;BME280;10470;42.670;23.354;2023-01-29T04:18:44;94943.63;;;0.22;100.00
20622;BME280;10470;42.670;23.354;2023-01-29T04:21:30;94920.28;;;0.19;100.00
20622;BME280;10470;42.670;23.354;2023-01-29T04:24:17;94943.56;;;0.11;100.00
20622;BME280;10470;42.670;23.354;2023-01-29T04:33:47;94940.53;;;0.20;100.00
20622;BME280;10470;42.670;23.354;2023-01-29T04:36:58;94951.34;;;0.38;100.00
20622;BME280;10470;42.670;23.354;2023-01-29T04:46:09;94949.72;;;0.19;100.00
20622;BME280;10470;42.670;23.354;2023-01-29T04:49:02;94953.56;;;0.21;100.00
20622;BME280;10470;42.670;23.354;2023-01-29T04:52:04;94952.78;;;0.17;100.00
20622;BME280;10470;42.670;23.354;2023-01-29T04:58:27;94955.81;;;0.09;100.00
20622;BME280;10470;42.670;23.354;2023-01-29T05:01:15;94954.31;;;0.15;100.00
20622;BME280;10470;42.670;23.354;2023-01-29T05:04:07;94955.03;;;0.08;100.00
20622;BME280;10470;42.670;23.354;2023-01-29T05:06:54;94948.16;;;0.11;100.00
20622;BME280;10470;42.670;23.354;2023-01-29T05:09:42;94960.44;;;0.19;100.00
20622;BME280;10470;42.670;23.354;2023-01-29T05:12:30;94965.38;;;0.10;100.00
20622;BME280;10470;42.670;23.354;2023-01-29T05:15:22;94970.00;;;0.16;100.00
20622;BME280;10470;42.670;23.354;2023-01-29T05:18:10;94978.41;;;0.15;100.00
20622;BME280;10470;42.670;23.354;2023-01-29T05:20:45;94969.25;;;0.23;100.00
20622;BME280;10470;42.670;23.354;2023-01-29T05:23:32;94972.69;;;0.20;100.00
20622;BME280;10470;42.670;23.354;2023-01-29T05:26:19;94976.53;;;0.19;100.00
20622;BME280;10470;42.670;23.354;2023-01-29T05:29:23;94978.44;;;0.22;100.00
20622;BME280;10470;42.670;23.354;2023-01-29T05:32:09;94968.44;;;0.08;100.00
20622;BME280;10470;42.670;23.354;2023-01-29T05:34:54;94984.16;;;0.17;100.00
20622;BME280;10470;42.670;23.354;2023-01-29T05:37:40;94984.16;;;0.13;100.00
20622;BME280;10470;42.670;23.354;2023-01-29T05:40:25;94986.13;;;0.24;100.00
20622;BME280;10470;42.670;23.354;2023-01-29T05:43:14;94990.31;;;0.25;100.00
20622;BME280;10470;42.670;23.354;2023-01-29T05:46:00;94978.75;;;0.10;100.00
20622;BME280;10470;42.670;23.354;2023-01-29T05:48:46;94995.69;;;0.21;100.00
20622;BME280;10470;42.670;23.354;2023-01-29T05:51:31;94994.16;;;0.27;100.00
20622;BME280;10470;42.670;23.354;2023-01-29T05:54:17;94994.56;;;0.33;100.00
20622;BME280;10470;42.670;23.354;2023-01-29T05:57:02;94997.25;;;0.33;100.00
20622;BME280;10470;42.670;23.354;2023-01-29T05:59:48;94991.81;;;0.15;100.00
20622;BME280;10470;42.670;23.354;2023-01-29T06:02:33;95002.59;;;0.29;100.00
20622;BME280;10470;42.670;23.354;2023-01-29T06:05:19;94993.00;;;0.21;100.00
20622;BME280;10470;42.670;23.354;2023-01-29T06:08:04;95004.84;;;0.16;100.00
20622;BME280;10470;42.670;23.354;2023-01-29T06:10:50;95011.34;;;0.19;100.00
20622;BME280;10470;42.670;23.354;2023-01-29T06:13:36;95012.78;;;0.02;100.00
20622;BME280;10470;42.670;23.354;2023-01-29T06:16:21;95011.22;;;-0.03;100.00
20622;BME280;10470;42.670;23.354;2023-01-29T06:19:01;95015.09;;;0.07;100.00
20622;BME280;10470;42.670;23.354;2023-01-29T06:21:47;95020.59;;;0.29;100.00
20622;BME280;10470;42.670;23.354;2023-01-29T06:24:32;95024.78;;;0.26;100.00
20622;BME280;10470;42.670;23.354;2023-01-29T06:27:18;95022.47;;;0.25;100.00
20622;BME280;10470;42.670;23.354;2023-01-29T06:30:04;95029.28;;;0.11;100.00
20622;BME280;10470;42.670;23.354;2023-01-29T06:32:49;95026.69;;;0.22;100.00
20622;BME280;10470;42.670;23.354;2023-01-29T06:35:35;95024.78;;;0.26;100.00
20622;BME280;10470;42.670;23.354;2023-01-29T06:38:20;95033.66;;;0.37;100.00
20622;BME280;10470;42.670;23.354;2023-01-29T06:41:16;95033.34;;;0.50;100.00
20622;BME280;10470;42.670;23.354;2023-01-29T06:44:02;95045.13;;;0.38;100.00
20622;BME280;10470;42.670;23.354;2023-01-29T06:46:47;95042.84;;;0.43;100.00
20622;BME280;10470;42.670;23.354;2023-01-29T06:49:33;95044.03;;;0.46;100.00
20622;BME280;10470;42.670;23.354;2023-01-29T06:52:19;95054.78;;;0.50;100.00
20622;BME280;10470;42.670;23.354;2023-01-29T06:55:05;95053.28;;;0.56;100.00
20622;BME280;10470;42.670;23.354;2023-01-29T06:57:50;95042.81;;;0.33;100.00
20622;BME280;10470;42.670;23.354;2023-01-29T07:00:36;95064.69;;;0.42;100.00
20622;BME280;10470;42.670;23.354;2023-01-29T07:03:22;95054.78;;;0.50;100.00
20622;BME280;10470;42.670;23.354;2023-01-29T07:06:07;95050.59;;;0.52;100.00
20622;BME280;10470;42.670;23.354;2023-01-29T07:08:53;95064.38;;;0.58;100.00
20622;BME280;10470;42.670;23.354;2023-01-29T07:11:39;95059.03;;;0.61;100.00
20622;BME280;10470;42.670;23.354;2023-01-29T07:14:24;95064.03;;;0.63;100.00
20622;BME280;10470;42.670;23.354;2023-01-29T07:17:10;95067.38;;;0.49;100.00
20622;BME280;10470;42.670;23.354;2023-01-29T07:19:55;95079.28;;;0.52;100.00
20622;BME280;10470;42.670;23.354;2023-01-29T07:22:41;95075.47;;;0.53;100.00
20622;BME280;10470;42.670;23.354;2023-01-29T07:25:26;95072.44;;;0.61;100.00
20622;BME280;10470;42.670;23.354;2023-01-29T07:28:12;95070.97;;;0.75;100.00
20622;BME280;10470;42.670;23.354;2023-01-29T07:30:57;95081.38;;;0.87;100.00
20622;BME280;10470;42.670;23.354;2023-01-29T07:33:43;95084.41;;;0.85;100.00
20622;BME280;10470;42.670;23.354;2023-01-29T07:36:29;95080.53;;;0.72;100.00
20622;BME280;10470;42.670;23.354;2023-01-29T07:39:05;95088.16;;;0.63;100.00
20622;BME280;10470;42.670;23.354;2023-01-29T07:41:51;95079.44;;;0.87;100.00
20622;BME280;10470;42.670;23.354;2023-01-29T07:44:36;95090.91;;;0.77;100.00
20622;BME280;10470;42.670;23.354;2023-01-29T07:47:21;95086.72;;;0.87;100.00
20622;BME280;10470;42.670;23.354;2023-01-29T07:50:07;95095.19;;;0.89;100.00
20622;BME280;10470;42.670;23.354;2023-01-29T07:52:53;95092.41;;;0.71;100.00
20622;BME280;10470;42.670;23.354;2023-01-29T07:55:39;95047.41;;;0.36;100.00
20622;BME280;10470;42.670;23.354;2023-01-29T07:58:25;95098.84;;;0.56;100.00
20622;BME280;10470;42.670;23.354;2023-01-29T08:00:56;95096.25;;;0.74;100.00
20622;BME280;10470;42.670;23.354;2023-01-29T08:03:42;95090.84;;;0.63;100.00
20622;BME280;10470;42.670;23.354;2023-01-29T08:06:27;95106.44;;;0.47;100.00
20622;BME280;10470;42.670;23.354;2023-01-29T08:09:13;95101.56;;;0.63;100.00
20622;BME280;10470;42.670;23.354;2023-01-29T08:11:58;95102.31;;;0.63;100.00
20622;BME280;10470;42.670;23.354;2023-01-29T08:14:43;95102.78;;;0.73;100.00
20622;BME280;10470;42.670;23.354;2023-01-29T08:17:29;95110.00;;;0.65;100.00
20622;BME280;10470;42.670;23.354;2023-01-29T08:20:15;95103.53;;;0.77;100.00
20622;BME280;10470;42.670;23.354;2023-01-29T08:22:49;95101.63;;;0.77;100.00
20622;BME280;10470;42.670;23.354;2023-01-29T08:25:35;95110.03;;;0.72;100.00
20622;BME280;10470;42.670;23.354;2023-01-29T08:28:20;95112.31;;;0.67;100.00
20622;BME280;10470;42.670;23.354;2023-01-29T08:31:12;95123.84;;;0.74;100.00
20622;BME280;10470;42.670;23.354;2023-01-29T08:33:58;95107.28;;;0.61;100.00
20622;BME280;10470;42.670;23.354;2023-01-29T08:36:43;95127.63;;;0.66;100.00
20622;BME280;10470;42.670;23.354;2023-01-29T08:39:29;95128.78;;;0.69;100.00
20622;BME280;10470;42.670;23.354;2023-01-29T08:42:14;95120.09;;;0.93;100.00
20622;BME280;10470;42.670;23.354;2023-01-29T08:45:00;95124.22;;;0.73;100.00
20622;BME280;10470;42.670;23.354;2023-01-29T08:47:48;95134.59;;;0.85;100.00
20622;BME280;10470;42.670;23.354;2023-01-29T08:50:34;95135.03;;;0.91;100.00
20622;BME280;10470;42.670;23.354;2023-01-29T08:53:20;95147.22;;;0.77;100.00
20622;BME280;10470;42.670;23.354;2023-01-29T08:56:08;95151.09;;;0.83;100.00
20622;BME280;10470;42.670;23.354;2023-01-29T08:58:54;95144.56;;;0.84;100.00
20622;BME280;10470;42.670;23.354;2023-01-29T09:01:39;95148.50;;;1.01;100.00
20622;BME280;10470;42.670;23.354;2023-01-29T09:04:25;95168.06;;;1.02;100.00
20622;BME280;10470;42.670;23.354;2023-01-29T09:07:10;95169.50;;;0.89;100.00
20622;BME280;10470;42.670;23.354;2023-01-29T09:09:55;95170.25;;;0.85;100.00
20622;BME280;10470;42.670;23.354;2023-01-29T09:12:41;95160.66;;;0.84;100.00
20622;BME280;10470;42.670;23.354;2023-01-29T09:15:27;95151.91;;;0.95;100.00
20622;BME280;10470;42.670;23.354;2023-01-29T09:18:12;95172.56;;;0.87;100.00
20622;BME280;10470;42.670;23.354;2023-01-29T09:20:58;95170.28;;;0.93;100.00
20622;BME280;10470;42.670;23.354;2023-01-29T09:23:43;95161.47;;;0.89;100.00
20622;BME280;10470;42.670;23.354;2023-01-29T09:26:28;95153.81;;;0.94;100.00
20622;BME280;10470;42.670;23.354;2023-01-29T09:29:14;95161.53;;;1.03;100.00
20622;BME280;10470;42.670;23.354;2023-01-29T09:31:59;95158.03;;;0.95;100.00
20622;BME280;10470;42.670;23.354;2023-01-29T09:34:45;95162.94;;;0.82;100.00
20622;BME280;10470;42.670;23.354;2023-01-29T09:37:30;95170.25;;;0.85;100.00
20622;BME280;10470;42.670;23.354;2023-01-29T09:43:44;95150.69;;;0.81;100.00
20622;BME280;10470;42.670;23.354;2023-01-29T09:46:39;95154.91;;;0.79;100.00
20622;BME280;10470;42.670;23.354;2023-01-29T09:49:35;95155.41;;;1.02;100.00
20622;BME280;10470;42.670;23.354;2023-01-29T09:52:29;95094.69;;;0.65;100.00
20622;BME280;10470;42.670;23.354;2023-01-29T09:55:38;95154.28;;;1.14;100.00
20622;BME280;10470;42.670;23.354;2023-01-29T09:58:34;95156.19;;;1.06;100.00
20622;BME280;10470;42.670;23.354;2023-01-29T10:16:54;95140.00;;;0.89;100.00
20622;BME280;10470;42.670;23.354;2023-01-29T10:19:44;95136.53;;;0.84;100.00
20622;BME280;10470;42.670;23.354;2023-01-29T10:25:38;95135.06;;;0.94;100.00
20622;BME280;10470;42.670;23.354;2023-01-29T10:28:40;95123.22;;;1.06;100.00
20622;BME280;10470;42.670;23.354;2023-01-29T10:31:38;95128.22;;;1.07;100.00
20622;BME280;10470;42.670;23.354;2023-01-29T10:37:40;95124.69;;;0.89;100.00
20622;BME280;10470;42.670;23.354;2023-01-29T10:40:38;95113.66;;;1.12;100.00
20622;BME280;10470;42.670;23.354;2023-01-29T10:43:47;95116.72;;;1.11;100.00
20622;BME280;10470;42.670;23.354;2023-01-29T10:46:45;95124.84;;;1.28;100.00
20622;BME280;10470;42.670;23.354;2023-01-29T10:59:11;95120.44;;;0.84;100.00
20622;BME280;10470;42.670;23.354;2023-01-29T11:02:01;95114.72;;;0.86;100.00
20622;BME280;10470;42.670;23.354;2023-01-29T11:04:47;95107.78;;;0.81;100.00
20622;BME280;10470;42.670;23.354;2023-01-29T11:07:33;95102.03;;;0.79;100.00
20622;BME280;10470;42.670;23.354;2023-01-29T11:10:21;95104.31;;;0.77;100.00
20622;BME280;10470;42.670;23.354;2023-01-29T11:13:11;95102.03;;;0.79;100.00
20622;BME280;10470;42.670;23.354;2023-01-29T11:15:58;95107.88;;;1.03;100.00
20622;BME280;10470;42.670;23.354;2023-01-29T11:22:16;95099.81;;;1.03;100.00
20622;BME280;10470;42.670;23.354;2023-01-29T11:25:18;95100.94;;;0.91;100.00
20622;BME280;10470;42.670;23.354;2023-01-29T11:28:04;95091.41;;;1.04;100.00
20622;BME280;10470;42.670;23.354;2023-01-29T11:30:51;95085.63;;;0.95;100.00
20622;BME280;10470;42.670;23.354;2023-01-29T11:33:37;95086.81;;;1.01;100.00
20622;BME280;10470;42.670;23.354;2023-01-29T11:39:21;95060.06;;;1.41;100.00
20622;BME280;10470;42.670;23.354;2023-01-29T11:42:18;95068.47;;;1.25;100.00
20622;BME280;10470;42.670;23.354;2023-01-29T11:45:24;95058.91;;;1.27;100.00
20622;BME280;10470;42.670;23.354;2023-01-29T11:48:17;95057.31;;;1.19;100.00
20622;BME280;10470;42.670;23.354;2023-01-29T11:51:04;95053.53;;;1.27;100.00
20622;BME280;10470;42.670;23.354;2023-01-29T11:53:52;95049.69;;;1.32;100.00
20622;BME280;10470;42.670;23.354;2023-01-29T11:56:44;95067.00;;;1.49;100.00
20622;BME280;10470;42.670;23.354;2023-01-29T11:59:42;95066.59;;;1.58;100.00
20622;BME280;10470;42.670;23.354;2023-01-29T12:02:41;95063.91;;;1.58;100.00
20622;BME280;10470;42.670;23.354;2023-01-29T12:05:27;95072.38;;;1.67;100.00
20622;BME280;10470;42.670;23.354;2023-01-29T12:08:16;95066.19;;;1.30;100.00
20622;BME280;10470;42.670;23.354;2023-01-29T12:13:54;95053.53;;;1.42;100.00
20622;BME280;10470;42.670;23.354;2023-01-29T12:17:11;95056.59;;;1.22;100.00
20622;BME280;10470;42.670;23.354;2023-01-29T12:20:10;95051.59;;;1.31;100.00
20622;BME280;10470;42.670;23.354;2023-01-29T12:26:23;95066.19;;;1.30;100.00
20622;BME280;10470;42.670;23.354;2023-01-29T12:35:29;95066.22;;;1.52;100.00
20622;BME280;10470;42.670;23.354;2023-01-29T12:38:18;95050.84;;;1.35;100.00
20622;BME280;10470;42.670;23.354;2023-01-29T12:47:20;95046.63;;;1.37;100.00
20622;BME280;10470;42.670;23.354;2023-01-29T12:50:19;95059.31;;;1.55;100.00
20622;BME280;10470;42.670;23.354;2023-01-29T12:55:51;95068.91;;;1.59;100.00
20622;BME280;10470;42.670;23.354;2023-01-29T13:01:34;95061.25;;;1.75;100.00
20622;BME280;10470;42.670;23.354;2023-01-29T13:04:53;95063.16;;;1.46;100.00
20622;BME280;10470;42.670;23.354;2023-01-29T13:07:38;95066.59;;;1.43;100.00
20622;BME280;10470;42.670;23.354;2023-01-29T13:10:35;95055.47;;;1.48;100.00
20622;BME280;10470;42.670;23.354;2023-01-29T13:16:56;95048.19;;;1.45;100.00
20622;BME280;10470;42.670;23.354;2023-01-29T13:19:49;95052.34;;;1.21;100.00
20622;BME280;10470;42.670;23.354;2023-01-29T13:22:37;95063.13;;;1.39;100.00
20622;BME280;10470;42.670;23.354;2023-01-29T13:25:23;95059.69;;;1.42;100.00
20622;BME280;10470;42.670;23.354;2023-01-29T13:28:17;95068.94;;;1.66;100.00
20622;BME280;10470;42.670;23.354;2023-01-29T13:31:27;95062.00;;;1.51;100.00
20622;BME280;10470;42.670;23.354;2023-01-29T13:34:18;95072.75;;;1.76;100.00
20622;BME280;10470;42.670;23.354;2023-01-29T13:37:11;95075.81;;;1.57;100.00
20622;BME280;10470;42.670;23.354;2023-01-29T13:40:03;95081.56;;;1.62;100.00
20622;BME280;10470;42.670;23.354;2023-01-29T13:42:50;95079.28;;;1.64;100.00
20622;BME280;10470;42.670;23.354;2023-01-29T13:45:43;95081.94;;;1.43;100.00
20622;BME280;10470;42.670;23.354;2023-01-29T13:48:30;95090.00;;;1.53;100.00
20622;BME280;10470;42.670;23.354;2023-01-29T13:51:26;95086.13;;;1.37;100.00
20622;BME280;10470;42.670;23.354;2023-01-29T13:54:17;95086.97;;;1.59;100.00
20622;BME280;10470;42.670;23.354;2023-01-29T14:05:57;95091.88;;;1.42;100.00
20622;BME280;10470;42.670;23.354;2023-01-29T14:08:44;95085.75;;;1.27;100.00
20622;BME280;10470;42.670;23.354;2023-01-29T14:11:34;95089.59;;;1.30;100.00
20622;BME280;10470;42.670;23.354;2023-01-29T14:17:33;95098.75;;;1.25;100.00
20622;BME280;10470;42.670;23.354;2023-01-29T14:23:49;95112.47;;;1.06;100.00
20622;BME280;10470;42.670;23.354;2023-01-29T14:29:28;95117.13;;;1.16;100.00
20622;BME280;10470;42.670;23.354;2023-01-29T14:32:23;95114.84;;;1.22;100.00
20622;BME280;10470;42.670;23.354;2023-01-29T14:35:20;95125.94;;;1.17;100.00
20622;BME280;10470;42.670;23.354;2023-01-29T14:38:06;95125.53;;;1.11;100.00
20622;BME280;10470;42.670;23.354;2023-01-29T14:41:02;95112.16;;;1.18;100.00
20622;BME280;10470;42.670;23.354;2023-01-29T14:43:48;95125.63;;;1.36;100.00
20622;BME280;10470;42.670;23.354;2023-01-29T14:49:51;95131.75;;;1.37;100.00
20622;BME280;10470;42.670;23.354;2023-01-29T14:52:40;95127.88;;;1.20;100.00
20622;BME280;10470;42.670;23.354;2023-01-29T14:55:30;95120.91;;;1.04;100.00
20622;BME280;10470;42.670;23.354;2023-01-29T14:58:29;95125.59;;;1.25;100.00
20622;BME280;10470;42.670;23.354;2023-01-29T15:01:42;95120.22;;;1.25;100.00
20622;BME280;10470;42.670;23.354;2023-01-29T15:04:45;95128.31;;;1.40;100.00
20622;BME280;10470;42.670;23.354;2023-01-29T15:07:36;95120.97;;;1.15;100.00
20622;BME280;10470;42.670;23.354;2023-01-29T15:10:44;95107.09;;;1.02;100.00
20622;BME280;10470;42.670;23.354;2023-01-29T15:13:40;95117.41;;;0.86;100.00
20622;BME280;10470;42.670;23.354;2023-01-29T15:16:35;95110.94;;;1.01;100.00
20622;BME280;10470;42.670;23.354;2023-01-29T15:19:27;95120.13;;;1.00;100.00
20622;BME280;10470;42.670;23.354;2023-01-29T15:22:16;95118.56;;;0.89;100.00
20622;BME280;10470;42.670;23.354;2023-01-29T15:25:05;95118.16;;;0.90;100.00
20622;BME280;10470;42.670;23.354;2023-01-29T15:27:52;95119.00;;;1.05;100.00
20622;BME280;10470;42.670;23.354;2023-01-29T15:30:39;95131.25;;;1.02;100.00
20622;BME280;10470;42.670;23.354;2023-01-29T15:33:27;95123.94;;;0.96;100.00
20622;BME280;10470;42.670;23.354;2023-01-29T15:36:31;95128.53;;;0.92;100.00
20622;BME280;10470;42.670;23.354;2023-01-29T15:39:19;95129.66;;;0.87;100.00
20622;BME280;10470;42.670;23.354;2023-01-29T15:42:12;95136.97;;;0.94;100.00
20622;BME280;10470;42.670;23.354;2023-01-29T15:44:59;95134.25;;;0.86;100.00
20622;BME280;10470;42.670;23.354;2023-01-29T15:47:45;95126.16;;;0.79;100.00
20622;BME280;10470;42.670;23.354;2023-01-29T15:50:32;95134.91;;;0.69;100.00
20622;BME280;10470;42.670;23.354;2023-01-29T15:53:25;95124.59;;;0.75;100.00
20622;BME280;10470;42.670;23.354;2023-01-29T15:56:16;95118.88;;;0.76;100.00
20622;BME280;10470;42.670;23.354;2023-01-29T15:59:04;95119.63;;;0.80;100.00
20622;BME280;10470;42.670;23.354;2023-01-29T16:01:51;95135.00;;;0.87;100.00
20622;BME280;10470;42.670;23.354;2023-01-29T16:04:37;95132.22;;;0.65;100.00
20622;BME280;10470;42.670;23.354;2023-01-29T16:07:23;95130.66;;;0.61;100.00
20622;BME280;10470;42.670;23.354;2023-01-29T16:10:20;95135.31;;;0.71;100.00
20622;BME280;10470;42.670;23.354;2023-01-29T16:13:18;95147.50;;;0.61;100.00
20622;BME280;10470;42.670;23.354;2023-01-29T16:19:12;95143.22;;;0.50;100.00
20622;BME280;10470;42.670;23.354;2023-01-29T16:22:04;95141.78;;;0.67;100.00
20622;BME280;10470;42.670;23.354;2023-01-29T16:24:50;95149.03;;;0.59;100.00
20622;BME280;10470;42.670;23.354;2023-01-29T16:27:37;95147.91;;;0.63;100.00
20622;BME280;10470;42.670;23.354;2023-01-29T16:30:26;95151.75;;;0.70;100.00
20622;BME280;10470;42.670;23.354;2023-01-29T16:33:14;95159.41;;;0.64;100.00
20622;BME280;10470;42.670;23.354;2023-01-29T16:36:03;95154.78;;;0.61;100.00
20622;BME280;10470;42.670;23.354;2023-01-29T16:38:57;95154.84;;;0.72;100.00
20622;BME280;10470;42.670;23.354;2023-01-29T16:42:34;95163.25;;;0.67;100.00
20622;BME280;10470;42.670;23.354;2023-01-29T16:45:03;95158.22;;;0.61;100.00
20622;BME280;10470;42.670;23.354;2023-01-29T16:48:24;95163.53;;;0.54;100.00
20622;BME280;10470;42.670;23.354;2023-01-29T16:51:14;95168.19;;;0.57;100.00
20622;BME280;10470;42.670;23.354;2023-01-29T16:54:13;95147.72;;;0.38;100.00
20622;BME280;10470;42.670;23.354;2023-01-29T16:57:03;95159.03;;;0.65;100.00
20622;BME280;10470;42.670;23.354;2023-01-29T16:59:52;95160.63;;;0.77;100.00